sensor_id;sensor_type;location;lat;lon;timestamp;pressure;altitude;pressure_sealevel;temperature;humidity
26697;BME280;14312;52.614;13.496;2023-08-31T00:01:09;99891.56;;;19.08;61.90
26697;BME280;14312;52.614;13.496;2023-08-31T00:03:55;99883.97;;;19.10;61.72
26697;BME280;14312;52.614;13.496;2023-08-31T00:06:42;99894.13;;;19.13;61.81
26697;BME280;14312;52.614;13.496;2023-08-31T00:09:30;99888.09;;;19.16;61.49
26697;BME280;14312;52.614;13.496;2023-08-31T00:12:16;99892.84;;;19.20;61.29
26697;BME280;14312;52.614;13.496;2023-08-31T00:15:03;99894.94;;;19.23;61.65
26697;BME280;14312;52.614;13.496;2023-08-31T00:17:50;99890.81;;;19.25;61.44
26697;BME280;14312;52.614;13.496;2023-08-31T00:20:36;99889.38;;;19.28;61.17
26697;BME280;14312;52.614;13.496;2023-08-31T00:23:22;99884.47;;;19.30;61.15
26697;BME280;14312;52.614;13.496;2023-08-31T00:26:08;99890.34;;;19.32;61.44
26697;BME280;14312;52.614;13.496;2023-08-31T00:28:54;99882.69;;;19.34;61.25
26697;BME280;14312;52.614;13.496;2023-08-31T00:31:40;99884.28;;;19.35;61.24
26697;BME280;14312;52.614;13.496;2023-08-31T00:34:28;99879.69;;;19.35;60.98
26697;BME280;14312;52.614;13.496;2023-08-31T00:37:13;99881.59;;;19.35;61.25
26697;BME280;14312;52.614;13.496;2023-08-31T00:39:59;99882.69;;;19.34;61.05
26697;BME280;14312;52.614;13.496;2023-08-31T00:42:45;99873.50;;;19.35;61.22
26697;BME280;14312;52.614;13.496;2023-08-31T00:45:32;99880.50;;;19.36;61.05
26697;BME280;14312;52.614;13.496;2023-08-31T00:48:18;99878.88;;;19.35;61.04
26697;BME280;14312;52.614;13.496;2023-08-31T00:51:05;99874.28;;;19.35;60.73
26697;BME280;14312;52.614;13.496;2023-08-31T00:53:52;99863.47;;;19.35;60.72
26697;BME280;14312;52.614;13.496;2023-08-31T00:56:41;99857.28;;;19.35;61.02
26697;BME280;14312;52.614;13.496;2023-08-31T00:59:27;99861.88;;;19.34;61.16
26697;BME280;14312;52.614;13.496;2023-08-31T01:02:21;99882.09;;;19.37;61.02
26697;BME280;14312;52.614;13.496;2023-08-31T01:05:13;99872.06;;;19.37;61.15
26697;BME280;14312;52.614;13.496;2023-08-31T01:14:55;99877.78;;;19.36;61.33
26697;BME280;14312;52.614;13.496;2023-08-31T01:17:54;99879.69;;;19.35;61.07
26697;BME280;14312;52.614;13.496;2023-08-31T01:21:16;99874.13;;;19.32;60.89
26697;BME280;14312;52.614;13.496;2023-08-31T01:24:04;99888.88;;;19.26;60.85
26697;BME280;14312;52.614;13.496;2023-08-31T01:26:51;99890.63;;;19.22;60.97
26697;BME280;14312;52.614;13.496;2023-08-31T01:29:38;99902.41;;;19.17;61.17
26697;BME280;14312;52.614;13.496;2023-08-31T01:32:24;99902.53;;;19.12;61.12
26697;BME280;14312;52.614;13.496;2023-08-31T01:35:10;99903.97;;;19.09;61.32
26697;BME280;14312;52.614;13.496;2023-08-31T01:37:59;99910.47;;;19.08;61.63
26697;BME280;14312;52.614;13.496;2023-08-31T01:40:54;99917.59;;;19.04;62.57
26697;BME280;14312;52.614;13.496;2023-08-31T01:43:42;99912.03;;;19.01;61.94
26697;BME280;14312;52.614;13.496;2023-08-31T01:46:30;99911.56;;;18.99;61.87
26697;BME280;14312;52.614;13.496;2023-08-31T01:49:16;99913.00;;;18.96;62.29
26697;BME280;14312;52.614;13.496;2023-08-31T01:52:02;99923.31;;;18.94;62.23
26697;BME280;14312;52.614;13.496;2023-08-31T01:54:48;99931.41;;;18.94;62.24
26697;BME280;14312;52.614;13.496;2023-08-31T01:57:34;99920.41;;;18.91;62.58
26697;BME280;14312;52.614;13.496;2023-08-31T02:00:20;99921.06;;;18.88;62.30
26697;BME280;14312;52.614;13.496;2023-08-31T02:03:06;99916.75;;;18.87;62.39
26697;BME280;14312;52.614;13.496;2023-08-31T02:05:53;99917.38;;;18.84;62.43
26697;BME280;14312;52.614;13.496;2023-08-31T02:08:39;99913.88;;;18.83;62.55
26697;BME280;14312;52.614;13.496;2023-08-31T02:11:25;99923.41;;;18.81;62.50
26697;BME280;14312;52.614;13.496;2023-08-31T02:14:11;99923.41;;;18.81;62.20
26697;BME280;14312;52.614;13.496;2023-08-31T02:16:57;99934.22;;;18.81;62.41
26697;BME280;14312;52.614;13.496;2023-08-31T02:19:43;99939.41;;;18.77;62.41
26697;BME280;14312;52.614;13.496;2023-08-31T02:22:33;99929.88;;;18.71;62.22
26697;BME280;14312;52.614;13.496;2023-08-31T02:25:20;99932.72;;;18.66;62.60
26697;BME280;14312;52.614;13.496;2023-08-31T02:28:06;99942.53;;;18.62;62.59
26697;BME280;14312;52.614;13.496;2023-08-31T02:30:59;99956.94;;;18.57;63.16
26697;BME280;14312;52.614;13.496;2023-08-31T02:33:46;99958.47;;;18.50;62.71
26697;BME280;14312;52.614;13.496;2023-08-31T02:36:32;99956.50;;;18.42;62.69
26697;BME280;14312;52.614;13.496;2023-08-31T02:39:18;99965.84;;;18.35;62.48
26697;BME280;14312;52.614;13.496;2023-08-31T02:42:04;99958.47;;;18.27;62.52
26697;BME280;14312;52.614;13.496;2023-08-31T02:44:54;99958.13;;;18.20;62.85
26697;BME280;14312;52.614;13.496;2023-08-31T02:47:40;99966.34;;;18.15;62.83
26697;BME280;14312;52.614;13.496;2023-08-31T02:50:25;99960.56;;;18.08;62.57
26697;BME280;14312;52.614;13.496;2023-08-31T02:53:11;99962.59;;;18.03;62.83
26697;BME280;14312;52.614;13.496;2023-08-31T02:55:57;99970.00;;;17.97;62.99
26697;BME280;14312;52.614;13.496;2023-08-31T02:58:43;99976.00;;;17.94;63.08
26697;BME280;14312;52.614;13.496;2023-08-31T03:01:29;99980.41;;;17.90;62.90
26697;BME280;14312;52.614;13.496;2023-08-31T03:04:15;99977.81;;;17.85;62.91
26697;BME280;14312;52.614;13.496;2023-08-31T03:07:03;99977.16;;;17.79;62.94
26697;BME280;14312;52.614;13.496;2023-08-31T03:09:49;99972.66;;;17.75;62.88
26697;BME280;14312;52.614;13.496;2023-08-31T03:12:36;99970.06;;;17.70;63.11
26697;BME280;14312;52.614;13.496;2023-08-31T03:15:22;99981.47;;;17.67;63.05
26697;BME280;14312;52.614;13.496;2023-08-31T03:18:08;99992.84;;;17.64;63.11
26697;BME280;14312;52.614;13.496;2023-08-31T03:20:55;99989.13;;;17.59;63.03
26697;BME280;14312;52.614;13.496;2023-08-31T03:23:41;99985.44;;;17.55;63.26
26697;BME280;14312;52.614;13.496;2023-08-31T03:26:27;99995.75;;;17.53;63.11
26697;BME280;14312;52.614;13.496;2023-08-31T03:29:13;99986.66;;;17.49;63.04
26697;BME280;14312;52.614;13.496;2023-08-31T03:32:00;99977.28;;;17.47;63.26
26697;BME280;14312;52.614;13.496;2023-08-31T03:34:51;99978.69;;;17.44;63.98
26697;BME280;14312;52.614;13.496;2023-08-31T03:37:37;99990.03;;;17.41;63.22
26697;BME280;14312;52.614;13.496;2023-08-31T03:40:23;99994.16;;;17.39;63.42
26697;BME280;14312;52.614;13.496;2023-08-31T03:43:09;99989.06;;;17.37;63.32
26697;BME280;14312;52.614;13.496;2023-08-31T03:45:59;99995.84;;;17.35;63.93
26697;BME280;14312;52.614;13.496;2023-08-31T03:48:45;99998.34;;;17.31;63.57
26697;BME280;14312;52.614;13.496;2023-08-31T03:51:31;99999.72;;;17.29;63.58
26697;BME280;14312;52.614;13.496;2023-08-31T03:54:17;100002.72;;;17.27;63.52
26697;BME280;14312;52.614;13.496;2023-08-31T03:57:04;100004.94;;;17.25;63.63
26697;BME280;14312;52.614;13.496;2023-08-31T03:59:50;100011.41;;;17.24;63.77
26697;BME280;14312;52.614;13.496;2023-08-31T04:02:36;100012.00;;;17.21;63.67
26697;BME280;14312;52.614;13.496;2023-08-31T04:05:23;100013.09;;;17.20;64.06
26697;BME280;14312;52.614;13.496;2023-08-31T04:08:09;100010.72;;;17.18;64.08
26697;BME280;14312;52.614;13.496;2023-08-31T04:10:55;100014.22;;;17.19;64.50
26697;BME280;14312;52.614;13.496;2023-08-31T04:13:41;100012.63;;;17.18;64.28
26697;BME280;14312;52.614;13.496;2023-08-31T04:16:27;100014.22;;;17.19;64.28
26697;BME280;14312;52.614;13.496;2023-08-31T04:19:13;100015.78;;;17.20;64.39
26697;BME280;14312;52.614;13.496;2023-08-31T04:21:59;100018.19;;;17.21;64.45
26697;BME280;14312;52.614;13.496;2023-08-31T04:24:45;100021.97;;;17.20;64.59
26697;BME280;14312;52.614;13.496;2023-08-31T04:27:32;100031.34;;;17.23;64.89
26697;BME280;14312;52.614;13.496;2023-08-31T04:30:18;100025.69;;;17.25;64.51
26697;BME280;14312;52.614;13.496;2023-08-31T04:33:06;100036.16;;;17.26;64.69
26697;BME280;14312;52.614;13.496;2023-08-31T04:35:52;100034.22;;;17.27;64.63
26697;BME280;14312;52.614;13.496;2023-08-31T04:38:38;100039.31;;;17.28;64.77
26697;BME280;14312;52.614;13.496;2023-08-31T04:41:23;100040.41;;;17.27;65.17
26697;BME280;14312;52.614;13.496;2023-08-31T04:44:09;100033.94;;;17.28;64.91
26697;BME280;14312;52.614;13.496;2023-08-31T04:46:56;100032.34;;;17.27;64.97
26697;BME280;14312;52.614;13.496;2023-08-31T04:49:42;100036.34;;;17.30;65.13
26697;BME280;14312;52.614;13.496;2023-08-31T04:52:28;100034.44;;;17.30;65.09
26697;BME280;14312;52.614;13.496;2023-08-31T04:55:14;100046.03;;;17.31;65.19
26697;BME280;14312;52.614;13.496;2023-08-31T04:58:00;100047.34;;;17.33;65.30
26697;BME280;14312;52.614;13.496;2023-08-31T05:00:46;100044.63;;;17.33;65.08
26697;BME280;14312;52.614;13.496;2023-08-31T05:03:33;100045.72;;;17.32;65.40
26697;BME280;14312;52.614;13.496;2023-08-31T05:06:19;100044.13;;;17.31;65.43
26697;BME280;14312;52.614;13.496;2023-08-31T05:09:05;100040.34;;;17.32;65.20
26697;BME280;14312;52.614;13.496;2023-08-31T05:11:52;100040.34;;;17.32;65.58
26697;BME280;14312;52.614;13.496;2023-08-31T05:14:38;100047.81;;;17.35;65.85
26697;BME280;14312;52.614;13.496;2023-08-31T05:17:25;100045.13;;;17.35;65.69
26697;BME280;14312;52.614;13.496;2023-08-31T05:20:11;100039.72;;;17.35;66.41
26697;BME280;14312;52.614;13.496;2023-08-31T05:22:57;100033.25;;;17.36;66.09
26697;BME280;14312;52.614;13.496;2023-08-31T05:25:44;100040.75;;;17.39;66.33
26697;BME280;14312;52.614;13.496;2023-08-31T05:28:30;100037.53;;;17.37;66.34
26697;BME280;14312;52.614;13.496;2023-08-31T05:31:16;100044.72;;;17.42;66.20
26697;BME280;14312;52.614;13.496;2023-08-31T05:34:02;100048.72;;;17.44;66.46
26697;BME280;14312;52.614;13.496;2023-08-31T05:36:48;100051.91;;;17.46;66.26
26697;BME280;14312;52.614;13.496;2023-08-31T05:39:34;100058.59;;;17.49;66.32
26697;BME280;14312;52.614;13.496;2023-08-31T05:42:20;100065.56;;;17.50;66.26
26697;BME280;14312;52.614;13.496;2023-08-31T05:45:06;100073.38;;;17.51;66.25
26697;BME280;14312;52.614;13.496;2023-08-31T05:47:53;100071.47;;;17.52;66.37
26697;BME280;14312;52.614;13.496;2023-08-31T05:50:38;100076.25;;;17.55;66.53
26697;BME280;14312;52.614;13.496;2023-08-31T05:53:24;100087.81;;;17.55;66.41
26697;BME280;14312;52.614;13.496;2023-08-31T05:56:10;100085.63;;;17.57;66.53
26697;BME280;14312;52.614;13.496;2023-08-31T05:58:56;100086.72;;;17.56;66.86
26697;BME280;14312;52.614;13.496;2023-08-31T06:01:43;100098.81;;;17.59;66.74
26697;BME280;14312;52.614;13.496;2023-08-31T06:04:29;100109.28;;;17.60;66.75
26697;BME280;14312;52.614;13.496;2023-08-31T06:07:15;100097.44;;;17.62;66.80
26697;BME280;14312;52.614;13.496;2023-08-31T06:10:01;100092.25;;;17.65;66.89
26697;BME280;14312;52.614;13.496;2023-08-31T06:12:49;100106.22;;;17.67;66.81
26697;BME280;14312;52.614;13.496;2023-08-31T06:15:36;100098.94;;;17.68;66.81
26697;BME280;14312;52.614;13.496;2023-08-31T06:18:22;100099.94;;;17.72;66.80
26697;BME280;14312;52.614;13.496;2023-08-31T06:21:08;100102.84;;;17.75;67.29
26697;BME280;14312;52.614;13.496;2023-08-31T06:23:54;100094.94;;;17.79;66.90
26697;BME280;14312;52.614;13.496;2023-08-31T06:26:40;100103.72;;;17.84;66.91
26697;BME280;14312;52.614;13.496;2023-08-31T06:29:26;100109.81;;;17.90;66.86
26697;BME280;14312;52.614;13.496;2023-08-31T06:32:12;100114.59;;;17.93;66.89
26697;BME280;14312;52.614;13.496;2023-08-31T06:34:58;100112.41;;;17.95;66.40
26697;BME280;14312;52.614;13.496;2023-08-31T06:37:44;100120.38;;;18.00;66.53
26697;BME280;14312;52.614;13.496;2023-08-31T06:40:31;100118.19;;;18.02;66.54
26697;BME280;14312;52.614;13.496;2023-08-31T06:43:17;100119.78;;;18.03;66.40
26697;BME280;14312;52.614;13.496;2023-08-31T06:46:03;100123.28;;;18.04;66.59
26697;BME280;14312;52.614;13.496;2023-08-31T06:48:49;100124.56;;;18.06;66.50
26697;BME280;14312;52.614;13.496;2023-08-31T06:51:35;100127.75;;;18.08;66.51
26697;BME280;14312;52.614;13.496;2023-08-31T06:54:21;100131.56;;;18.07;66.56
26697;BME280;14312;52.614;13.496;2023-08-31T06:57:07;100134.13;;;18.12;66.42
26697;BME280;14312;52.614;13.496;2023-08-31T06:59:53;100138.44;;;18.13;66.21
26697;BME280;14312;52.614;13.496;2023-08-31T07:02:40;100139.22;;;18.14;66.42
26697;BME280;14312;52.614;13.496;2023-08-31T07:05:27;100148.13;;;18.14;66.43
26697;BME280;14312;52.614;13.496;2023-08-31T07:08:15;100140.53;;;18.16;66.28
26697;BME280;14312;52.614;13.496;2023-08-31T07:11:01;100149.13;;;18.18;66.15
26697;BME280;14312;52.614;13.496;2023-08-31T07:13:47;100145.81;;;18.21;65.97
26697;BME280;14312;52.614;13.496;2023-08-31T07:16:33;100148.50;;;18.21;66.32
26697;BME280;14312;52.614;13.496;2023-08-31T07:19:19;100152.69;;;18.27;66.28
26697;BME280;14312;52.614;13.496;2023-08-31T07:22:12;100152.91;;;18.31;66.05
26697;BME280;14312;52.614;13.496;2023-08-31T07:24:58;100155.78;;;18.34;66.30
26697;BME280;14312;52.614;13.496;2023-08-31T07:27:44;100155.19;;;18.37;65.87
26697;BME280;14312;52.614;13.496;2023-08-31T07:30:30;100163.28;;;18.37;65.70
26697;BME280;14312;52.614;13.496;2023-08-31T07:33:16;100160.06;;;18.35;65.81
26697;BME280;14312;52.614;13.496;2023-08-31T07:36:03;100164.38;;;18.36;65.78
26697;BME280;14312;52.614;13.496;2023-08-31T07:38:50;100171.38;;;18.37;66.06
26697;BME280;14312;52.614;13.496;2023-08-31T07:41:36;100177.28;;;18.39;65.80
26697;BME280;14312;52.614;13.496;2023-08-31T07:44:21;100175.03;;;18.42;65.99
26697;BME280;14312;52.614;13.496;2023-08-31T07:47:08;100183.53;;;18.49;66.22
26697;BME280;14312;52.614;13.496;2023-08-31T07:49:53;100188.50;;;18.55;65.86
26697;BME280;14312;52.614;13.496;2023-08-31T07:52:39;100193.03;;;18.60;65.80
26697;BME280;14312;52.614;13.496;2023-08-31T07:55:25;100195.63;;;18.65;65.55
26697;BME280;14312;52.614;13.496;2023-08-31T07:58:11;100194.41;;;18.71;64.99
26697;BME280;14312;52.614;13.496;2023-08-31T08:00:57;100193.81;;;18.74;64.74
26697;BME280;14312;52.614;13.496;2023-08-31T08:03:43;100195.56;;;18.78;64.49
26697;BME280;14312;52.614;13.496;2023-08-31T08:06:29;100207.19;;;18.79;64.09
26697;BME280;14312;52.614;13.496;2023-08-31T08:09:15;100209.56;;;18.81;64.09
26697;BME280;14312;52.614;13.496;2023-08-31T08:12:01;100208.78;;;18.80;64.01
26697;BME280;14312;52.614;13.496;2023-08-31T08:14:47;100211.97;;;18.82;nan
26697;BME280;14312;52.614;13.496;2023-08-31T08:17:33;100220.56;;;18.84;63.89
26697;BME280;14312;52.614;13.496;2023-08-31T08:20:19;100216.47;;;18.87;64.06
26697;BME280;14312;52.614;13.496;2023-08-31T08:23:05;100225.72;;;18.94;64.53
26697;BME280;14312;52.614;13.496;2023-08-31T08:25:51;100214.50;;;19.01;64.79
26697;BME280;14312;52.614;13.496;2023-08-31T08:28:37;100211.25;;;19.12;64.30
26697;BME280;14312;52.614;13.496;2023-08-31T08:31:23;100220.72;;;19.24;64.32
26697;BME280;14312;52.614;13.496;2023-08-31T08:34:09;100215.03;;;19.34;64.59
26697;BME280;14312;52.614;13.496;2023-08-31T08:36:55;100219.91;;;19.45;64.29
26697;BME280;14312;52.614;13.496;2023-08-31T08:39:41;100214.91;;;19.61;63.83
26697;BME280;14312;52.614;13.496;2023-08-31T08:42:29;100224.22;;;19.77;63.80
26697;BME280;14312;52.614;13.496;2023-08-31T08:45:15;100216.03;;;19.91;63.09
26697;BME280;14312;52.614;13.496;2023-08-31T08:48:06;100210.50;;;20.05;62.89
26697;BME280;14312;52.614;13.496;2023-08-31T08:50:53;100213.56;;;20.20;62.80
26697;BME280;14312;52.614;13.496;2023-08-31T08:53:43;100221.44;;;20.39;61.93
26697;BME280;14312;52.614;13.496;2023-08-31T08:56:29;100215.13;;;20.52;62.00
26697;BME280;14312;52.614;13.496;2023-08-31T08:59:15;100211.47;;;20.65;61.17
26697;BME280;14312;52.614;13.496;2023-08-31T09:02:01;100212.28;;;20.75;60.55
26697;BME280;14312;52.614;13.496;2023-08-31T09:04:47;100207.19;;;20.82;60.25
26697;BME280;14312;52.614;13.496;2023-08-31T09:07:35;100222.16;;;20.88;59.71
26697;BME280;14312;52.614;13.496;2023-08-31T09:10:24;100209.88;;;20.90;59.06
26697;BME280;14312;52.614;13.496;2023-08-31T09:13:18;100203.66;;;20.90;59.32
26697;BME280;14312;52.614;13.496;2023-08-31T09:16:04;100203.84;;;20.93;59.83
26697;BME280;14312;52.614;13.496;2023-08-31T09:18:50;100223.25;;;21.04;59.07
26697;BME280;14312;52.614;13.496;2023-08-31T09:21:36;100212.28;;;21.09;58.34
26697;BME280;14312;52.614;13.496;2023-08-31T09:24:23;100209.41;;;21.14;58.43
26697;BME280;14312;52.614;13.496;2023-08-31T09:27:10;100222.81;;;21.19;58.35
26697;BME280;14312;52.614;13.496;2023-08-31T09:29:56;100206.41;;;21.24;58.01
26697;BME280;14312;52.614;13.496;2023-08-31T09:32:42;100211.00;;;21.32;57.62
26697;BME280;14312;52.614;13.496;2023-08-31T09:35:30;100218.97;;;21.37;56.53
26697;BME280;14312;52.614;13.496;2023-08-31T09:38:17;100217.69;;;21.43;56.16
26697;BME280;14312;52.614;13.496;2023-08-31T09:41:04;100225.00;;;21.52;56.43
26697;BME280;14312;52.614;13.496;2023-08-31T09:43:51;100211.25;;;21.57;55.76
26697;BME280;14312;52.614;13.496;2023-08-31T09:46:37;100223.22;;;21.64;55.21
26697;BME280;14312;52.614;13.496;2023-08-31T09:49:24;100222.72;;;21.71;53.34
26697;BME280;14312;52.614;13.496;2023-08-31T09:52:11;100209.16;;;21.71;53.34
26697;BME280;14312;52.614;13.496;2023-08-31T09:54:58;100215.22;;;21.68;54.52
26697;BME280;14312;52.614;13.496;2023-08-31T09:57:45;100204.19;;;21.73;55.01
26697;BME280;14312;52.614;13.496;2023-08-31T10:00:32;100204.78;;;21.87;54.34
26697;BME280;14312;52.614;13.496;2023-08-31T10:03:20;100199.00;;;21.97;53.46
26697;BME280;14312;52.614;13.496;2023-08-31T10:06:06;100198.19;;;22.05;52.50
26697;BME280;14312;52.614;13.496;2023-08-31T10:08:53;100192.56;;;22.10;53.14
26697;BME280;14312;52.614;13.496;2023-08-31T10:11:39;100189.69;;;22.15;53.75
26697;BME280;14312;52.614;13.496;2023-08-31T10:14:27;100190.88;;;22.26;53.15
26697;BME280;14312;52.614;13.496;2023-08-31T10:17:14;100191.44;;;22.41;52.00
26697;BME280;14312;52.614;13.496;2023-08-31T10:20:00;100194.22;;;22.53;51.85
26697;BME280;14312;52.614;13.496;2023-08-31T10:22:46;100208.69;;;22.65;51.38
26697;BME280;14312;52.614;13.496;2023-08-31T10:28:44;100196.75;;;22.99;51.62
26697;BME280;14312;52.614;13.496;2023-08-31T10:31:33;100189.59;;;23.16;50.02
26697;BME280;14312;52.614;13.496;2023-08-31T10:34:34;100193.25;;;23.32;50.45
26697;BME280;14312;52.614;13.496;2023-08-31T10:37:20;100208.22;;;23.38;47.84
26697;BME280;14312;52.614;13.496;2023-08-31T10:43:14;100211.59;;;23.23;46.71
26697;BME280;14312;52.614;13.496;2023-08-31T10:46:00;100209.94;;;23.10;48.71
26697;BME280;14312;52.614;13.496;2023-08-31T10:48:51;100223.69;;;22.92;48.83
26697;BME280;14312;52.614;13.496;2023-08-31T10:51:41;100228.94;;;22.68;49.38
26697;BME280;14312;52.614;13.496;2023-08-31T10:54:32;100235.53;;;22.38;49.81
26697;BME280;14312;52.614;13.496;2023-08-31T10:57:30;100247.03;;;22.05;50.31
26697;BME280;14312;52.614;13.496;2023-08-31T11:00:46;100240.28;;;21.65;50.88
26697;BME280;14312;52.614;13.496;2023-08-31T11:03:59;100240.97;;;21.27;51.48
26697;BME280;14312;52.614;13.496;2023-08-31T11:06:45;100247.34;;;20.97;52.02
26697;BME280;14312;52.614;13.496;2023-08-31T11:09:30;100243.66;;;20.76;52.64
26697;BME280;14312;52.614;13.496;2023-08-31T11:12:16;100237.13;;;20.59;53.14
26697;BME280;14312;52.614;13.496;2023-08-31T11:15:03;100233.75;;;20.45;53.45
26697;BME280;14312;52.614;13.496;2023-08-31T11:17:54;100229.72;;;20.34;54.09
26697;BME280;14312;52.614;13.496;2023-08-31T11:20:40;100227.75;;;20.26;54.20
26697;BME280;14312;52.614;13.496;2023-08-31T11:23:26;100230.00;;;20.24;55.02
26697;BME280;14312;52.614;13.496;2023-08-31T11:26:12;100229.50;;;20.22;54.92
26697;BME280;14312;52.614;13.496;2023-08-31T11:28:58;100219.78;;;20.21;54.59
26697;BME280;14312;52.614;13.496;2023-08-31T11:31:44;100219.19;;;20.24;54.82
26697;BME280;14312;52.614;13.496;2023-08-31T11:34:30;100223.50;;;20.33;55.58
26697;BME280;14312;52.614;13.496;2023-08-31T11:37:16;100220.84;;;20.51;55.66
26697;BME280;14312;52.614;13.496;2023-08-31T11:40:03;100216.09;;;20.74;55.44
26697;BME280;14312;52.614;13.496;2023-08-31T11:42:51;100215.00;;;21.00;55.18
26697;BME280;14312;52.614;13.496;2023-08-31T11:45:38;100213.56;;;21.20;54.65
26697;BME280;14312;52.614;13.496;2023-08-31T11:48:24;100223.59;;;21.37;53.60
26697;BME280;14312;52.614;13.496;2023-08-31T11:51:11;100219.91;;;21.41;52.99
26697;BME280;14312;52.614;13.496;2023-08-31T11:53:57;100226.44;;;21.40;52.45
26697;BME280;14312;52.614;13.496;2023-08-31T11:56:46;100217.50;;;21.40;53.36
26697;BME280;14312;52.614;13.496;2023-08-31T11:59:38;100215.59;;;21.49;54.21
26697;BME280;14312;52.614;13.496;2023-08-31T12:02:24;100213.00;;;21.61;53.32
26697;BME280;14312;52.614;13.496;2023-08-31T12:05:10;100220.97;;;21.66;52.68
26697;BME280;14312;52.614;13.496;2023-08-31T12:07:56;100229.44;;;21.65;52.35
26697;BME280;14312;52.614;13.496;2023-08-31T12:10:42;100225.31;;;21.59;52.30
26697;BME280;14312;52.614;13.496;2023-08-31T12:13:28;100230.75;;;21.50;51.88
26697;BME280;14312;52.614;13.496;2023-08-31T12:16:14;100233.47;;;21.41;52.04
26697;BME280;14312;52.614;13.496;2023-08-31T12:19:02;100221.19;;;21.35;52.12
26697;BME280;14312;52.614;13.496;2023-08-31T12:21:49;100225.03;;;21.34;52.26
26697;BME280;14312;52.614;13.496;2023-08-31T12:24:41;100225.19;;;21.38;52.39
26697;BME280;14312;52.614;13.496;2023-08-31T12:27:27;100226.28;;;21.45;52.42
26697;BME280;14312;52.614;13.496;2023-08-31T12:30:13;100229.75;;;21.55;51.55
26697;BME280;14312;52.614;13.496;2023-08-31T12:32:59;100239.19;;;21.57;51.58
26697;BME280;14312;52.614;13.496;2023-08-31T12:35:46;100244.91;;;21.56;52.14
26697;BME280;14312;52.614;13.496;2023-08-31T12:38:32;100240.47;;;21.51;52.28
26697;BME280;14312;52.614;13.496;2023-08-31T12:41:19;100244.78;;;21.43;52.47
26697;BME280;14312;52.614;13.496;2023-08-31T12:44:07;100238.09;;;21.32;52.71
26697;BME280;14312;52.614;13.496;2023-08-31T12:46:53;100237.34;;;21.23;53.07
26697;BME280;14312;52.614;13.496;2023-08-31T12:49:40;100226.00;;;21.21;53.58
26697;BME280;14312;52.614;13.496;2023-08-31T12:52:25;100230.78;;;21.24;54.57
26697;BME280;14312;52.614;13.496;2023-08-31T12:55:13;100223.09;;;21.43;54.41
26697;BME280;14312;52.614;13.496;2023-08-31T12:58:00;100216.81;;;21.69;54.85
26697;BME280;14312;52.614;13.496;2023-08-31T13:00:46;100218.91;;;22.10;55.25
26697;BME280;14312;52.614;13.496;2023-08-31T13:03:33;100213.84;;;22.58;54.97
26697;BME280;14312;52.614;13.496;2023-08-31T13:06:19;100220.16;;;23.13;52.70
26697;BME280;14312;52.614;13.496;2023-08-31T13:09:05;100211.91;;;23.54;51.93
26697;BME280;14312;52.614;13.496;2023-08-31T13:11:54;100198.13;;;23.84;48.31
26697;BME280;14312;52.614;13.496;2023-08-31T13:14:40;100199.63;;;23.93;48.53
26697;BME280;14312;52.614;13.496;2023-08-31T13:17:26;100195.41;;;23.96;47.73
26697;BME280;14312;52.614;13.496;2023-08-31T13:20:12;100185.22;;;23.93;47.89
26697;BME280;14312;52.614;13.496;2023-08-31T13:22:58;100193.59;;;23.88;47.65
26697;BME280;14312;52.614;13.496;2023-08-31T13:25:44;100198.13;;;23.84;47.24
26697;BME280;14312;52.614;13.496;2023-08-31T13:28:30;100191.09;;;23.83;47.79
26697;BME280;14312;52.614;13.496;2023-08-31T13:31:17;100185.22;;;23.93;47.40
26697;BME280;14312;52.614;13.496;2023-08-31T13:34:03;100194.50;;;24.04;46.20
26697;BME280;14312;52.614;13.496;2023-08-31T13:36:49;100199.03;;;24.12;47.09
26697;BME280;14312;52.614;13.496;2023-08-31T13:39:36;100205.75;;;24.27;47.03
26697;BME280;14312;52.614;13.496;2023-08-31T13:42:22;100204.72;;;24.43;45.78
26697;BME280;14312;52.614;13.496;2023-08-31T13:45:09;100210.81;;;24.65;44.10
26697;BME280;14312;52.614;13.496;2023-08-31T13:47:55;100215.09;;;24.78;42.92
26697;BME280;14312;52.614;13.496;2023-08-31T13:50:41;100205.19;;;24.85;43.58
26697;BME280;14312;52.614;13.496;2023-08-31T13:53:27;100213.34;;;24.98;42.39
26697;BME280;14312;52.614;13.496;2023-08-31T13:56:13;100199.56;;;25.06;41.69
26697;BME280;14312;52.614;13.496;2023-08-31T13:58:59;100200.56;;;25.14;40.91
26697;BME280;14312;52.614;13.496;2023-08-31T14:01:44;100215.09;;;25.18;41.20
26697;BME280;14312;52.614;13.496;2023-08-31T14:04:30;100215.63;;;25.23;41.78
26697;BME280;14312;52.614;13.496;2023-08-31T14:07:17;100212.41;;;25.33;40.81
26697;BME280;14312;52.614;13.496;2023-08-31T14:10:03;100217.31;;;25.28;40.16
26697;BME280;14312;52.614;13.496;2023-08-31T14:12:51;100208.56;;;25.07;40.55
26697;BME280;14312;52.614;13.496;2023-08-31T14:15:36;100217.63;;;24.71;40.54
26697;BME280;14312;52.614;13.496;2023-08-31T14:18:29;100236.41;;;24.24;40.46
26697;BME280;14312;52.614;13.496;2023-08-31T14:21:17;100254.59;;;23.74;41.15
26697;BME280;14312;52.614;13.496;2023-08-31T14:24:03;100245.78;;;23.24;42.71
26697;BME280;14312;52.614;13.496;2023-08-31T14:26:49;100254.91;;;22.86;43.02
26697;BME280;14312;52.614;13.496;2023-08-31T14:29:37;100250.97;;;22.46;43.44
26697;BME280;14312;52.614;13.496;2023-08-31T14:32:23;100248.28;;;22.16;44.00
26697;BME280;14312;52.614;13.496;2023-08-31T14:35:09;100254.75;;;21.86;44.79
26697;BME280;14312;52.614;13.496;2023-08-31T14:37:56;100268.03;;;21.62;45.36